Time;durP1;ratioP1;P1;durP2;ratioP2;P2;SDS_P1;SDS_P2;PMS_P1;PMS_P2;Temp;Humidity;BMP_temperature;BMP_pressure;BME280_temperature;BME280_humidity;BME280_pressure;Samples;Min_cycle;Max_cycle;Signal;HPM_P1;HPM_P2
2021/03/29 00:00:24;;;;;;;7.47;2.53;;;9.00;92.80;;;;;;5021918;28;20033;-79
2021/03/29 00:02:50;;;;;;;9.57;2.40;;;9.00;93.00;;;;;;5027737;28;20054;-79
2021/03/29 00:05:19;;;;;;;6.82;2.47;;;9.10;93.10;;;;;;5022287;28;20132;-79
2021/03/29 00:07:49;;;;;;;10.25;2.70;;;9.10;93.10;;;;;;5026811;28;20042;-79
2021/03/29 00:10:16;;;;;;;8.98;2.70;;;9.10;92.60;;;;;;5023822;28;20095;-79
2021/03/29 00:12:47;;;;;;;12.75;3.38;;;9.10;92.90;;;;;;5040152;28;20056;-79
2021/03/29 00:15:19;;;;;;;8.88;2.65;;;9.10;92.50;;;;;;5041388;28;20037;-79
2021/03/29 00:17:45;;;;;;;11.85;3.70;;;9.20;93.00;;;;;;5026403;28;20034;-79
2021/03/29 00:20:17;;;;;;;8.35;2.70;;;9.10;92.80;;;;;;5024189;28;20084;-79
2021/03/29 00:22:44;;;;;;;8.88;2.67;;;9.10;92.80;;;;;;5032759;28;20065;-79
2021/03/29 00:25:14;;;;;;;9.80;3.47;;;9.10;92.60;;;;;;5022412;28;20062;-79
2021/03/29 00:27:40;;;;;;;7.47;2.90;;;9.10;91.90;;;;;;5019083;28;20038;-79
2021/03/29 00:30:10;;;;;;;7.85;3.08;;;9.00;92.50;;;;;;5033459;28;20048;-79
2021/03/29 00:32:37;;;;;;;11.25;2.75;;;9.00;92.80;;;;;;5028851;28;20577;-79
2021/03/29 00:35:04;;;;;;;7.88;2.72;;;8.90;93.00;;;;;;5035845;28;20048;-79
2021/03/29 00:37:31;;;;;;;8.32;2.70;;;8.90;93.10;;;;;;5031500;28;20053;-79
2021/03/29 00:39:58;;;;;;;8.52;2.83;;;9.00;93.30;;;;;;5028905;28;20034;-79
2021/03/29 00:42:25;;;;;;;8.75;2.90;;;8.90;93.30;;;;;;5027293;28;20041;-79
2021/03/29 00:44:51;;;;;;;8.77;2.35;;;9.00;93.00;;;;;;5032278;28;20061;-80
2021/03/29 00:47:17;;;;;;;10.45;3.42;;;9.10;92.90;;;;;;5029835;28;20443;-80
2021/03/29 00:49:43;;;;;;;7.95;2.25;;;9.10;92.70;;;;;;5033450;28;20132;-80
2021/03/29 00:52:09;;;;;;;9.05;2.80;;;9.10;92.50;;;;;;5031529;28;20083;-80
2021/03/29 00:54:37;;;;;;;7.20;2.75;;;9.20;92.60;;;;;;5036118;28;20115;-80
2021/03/29 00:57:03;;;;;;;8.23;3.05;;;9.20;92.30;;;;;;5024234;28;20049;-79
2021/03/29 00:59:30;;;;;;;7.22;3.20;;;9.30;92.20;;;;;;5032274;28;20088;-79
2021/03/29 01:01:56;;;;;;;10.88;2.78;;;9.20;92.40;;;;;;5038960;28;20034;-80
2021/03/29 01:04:22;;;;;;;5.93;2.90;;;9.20;92.30;;;;;;5031734;28;20034;-80
2021/03/29 01:06:51;;;;;;;10.23;2.85;;;9.20;92.20;;;;;;5040534;28;20071;-80
2021/03/29 01:09:24;;;;;;;8.70;2.72;;;9.20;92.20;;;;;;5034786;28;20037;-80
2021/03/29 01:12:03;;;;;;;9.25;2.88;;;9.20;92.20;;;;;;5034361;28;20489;-80
2021/03/29 01:14:38;;;;;;;9.20;2.50;;;9.30;91.60;;;;;;5030137;28;20042;-80
2021/03/29 01:17:18;;;;;;;10.35;2.85;;;9.30;92.30;;;;;;5040742;28;20076;-80
2021/03/29 01:20:01;;;;;;;9.48;2.85;;;9.30;92.10;;;;;;5036407;28;20037;-80
2021/03/29 01:22:36;;;;;;;10.13;2.55;;;9.30;91.20;;;;;;5039153;28;20125;-80
2021/03/29 01:25:24;;;;;;;5.60;2.38;;;9.30;92.10;;;;;;5037276;28;20060;-80
2021/03/29 01:28:00;;;;;;;10.40;2.55;;;9.30;91.40;;;;;;5059818;28;20129;-80
2021/03/29 01:30:31;;;;;;;12.88;2.70;;;9.30;91.80;;;;;;5032977;28;20060;-80
2021/03/29 01:33:01;;;;;;;7.90;2.83;;;9.40;92.10;;;;;;5056076;28;20088;-80
2021/03/29 01:35:43;;;;;;;10.73;2.70;;;9.40;92.20;;;;;;5030288;28;20116;-80
2021/03/29 01:38:10;;;;;;;9.48;2.60;;;9.30;91.20;;;;;;5041676;28;20141;-80
2021/03/29 01:40:39;;;;;;;11.18;2.90;;;9.40;92.00;;;;;;5027680;28;20042;-80
2021/03/29 01:43:07;;;;;;;8.98;2.55;;;9.40;91.80;;;;;;5036222;28;20084;-80
2021/03/29 01:45:34;;;;;;;7.70;2.70;;;9.40;91.90;;;;;;5029905;28;20042;-80
2021/03/29 01:48:05;;;;;;;8.82;2.88;;;9.30;91.60;;;;;;5037815;28;20501;-80
2021/03/29 01:50:35;;;;;;;7.68;2.45;;;9.40;90.90;;;;;;5028179;28;20037;-80
2021/03/29 01:53:02;;;;;;;12.45;3.45;;;9.40;91.70;;;;;;5048325;28;20113;-80
2021/03/29 01:55:30;;;;;;;6.70;2.80;;;9.50;91.80;;;;;;5026351;28;20513;-80
2021/03/29 01:57:56;;;;;;;7.97;2.63;;;9.50;91.60;;;;;;5035588;28;20053;-80
2021/03/29 02:00:31;;;;;;;10.77;3.13;;;9.40;91.70;;;;;;5031198;28;20058;-80
2021/03/29 02:02:59;;;;;;;12.25;3.20;;;9.50;90.80;;;;;;5037861;28;20053;-80
2021/03/29 02:05:25;;;;;;;8.43;2.90;;;9.50;91.20;;;;;;5034617;28;20042;-79
2021/03/29 02:07:52;;;;;;;10.52;3.97;;;9.50;91.50;;;;;;5035423;28;20045;-79
2021/03/29 02:10:21;;;;;;;11.55;3.20;;;9.60;91.40;;;;;;5030172;28;20060;-79
2021/03/29 02:12:48;;;;;;;11.20;3.28;;;9.60;91.10;;;;;;5030415;28;20079;-79
2021/03/29 02:15:21;;;;;;;8.48;3.10;;;9.70;91.20;;;;;;5030927;28;20042;-79
2021/03/29 02:17:50;;;;;;;9.73;3.97;;;9.60;91.40;;;;;;5033890;28;20034;-79
2021/03/29 02:20:17;;;;;;;8.90;3.17;;;9.50;91.50;;;;;;5026137;28;20034;-79
2021/03/29 02:22:46;;;;;;;11.10;3.90;;;9.50;91.50;;;;;;5037098;28;20443;-79
2021/03/29 02:25:13;;;;;;;8.95;3.78;;;9.50;91.50;;;;;;5036496;28;20065;-79
2021/03/29 02:27:39;;;;;;;10.32;3.90;;;9.50;91.30;;;;;;5028236;28;20068;-79
2021/03/29 02:30:13;;;;;;;10.85;3.80;;;9.60;91.60;;;;;;5032363;28;20053;-79
2021/03/29 02:32:44;;;;;;;8.57;3.78;;;9.50;91.60;;;;;;5031040;28;20091;-79
2021/03/29 02:35:12;;;;;;;8.05;3.78;;;9.50;91.20;;;;;;5032066;28;20045;-79
2021/03/29 02:37:43;;;;;;;9.63;4.10;;;9.60;91.40;;;;;;5031918;28;20046;-79
2021/03/29 02:40:09;;;;;;;11.82;4.32;;;9.70;91.40;;;;;;5035395;28;20049;-79
2021/03/29 02:42:36;;;;;;;9.80;3.65;;;9.60;90.90;;;;;;5028931;28;20038;-79
2021/03/29 02:45:05;;;;;;;9.50;3.75;;;9.60;91.10;;;;;;5036707;28;20033;-79
2021/03/29 02:47:33;;;;;;;11.85;4.22;;;9.60;90.70;;;;;;5029773;28;20041;-79
2021/03/29 02:50:01;;;;;;;9.20;3.90;;;9.60;91.00;;;;;;5036100;28;20079;-80
2021/03/29 02:52:28;;;;;;;7.63;2.80;;;9.70;90.80;;;;;;5022631;28;20086;-80
2021/03/29 02:54:55;;;;;;;6.40;3.63;;;9.70;90.50;;;;;;5032443;28;20049;-80
2021/03/29 02:57:23;;;;;;;9.23;4.00;;;9.70;91.00;;;;;;5029585;28;20060;-80
2021/03/29 02:59:49;;;;;;;9.85;4.00;;;9.60;90.70;;;;;;5036884;28;20057;-80
2021/03/29 03:02:16;;;;;;;9.85;4.35;;;9.70;90.90;;;;;;5026817;28;20111;-80
2021/03/29 03:04:42;;;;;;;10.40;4.15;;;9.60;90.80;;;;;;5033602;28;20037;-80
2021/03/29 03:07:08;;;;;;;11.60;4.25;;;9.60;90.10;;;;;;5032701;28;20056;-79
2021/03/29 03:09:35;;;;;;;11.00;4.43;;;9.70;90.50;;;;;;5044282;28;20048;-79
2021/03/29 03:12:03;;;;;;;8.45;4.15;;;9.60;90.50;;;;;;5035786;28;20072;-79
2021/03/29 03:14:30;;;;;;;13.45;4.68;;;9.60;90.80;;;;;;5029261;28;20042;-79
2021/03/29 03:16:56;;;;;;;9.80;4.78;;;9.50;90.40;;;;;;5036899;28;20062;-80
2021/03/29 03:19:22;;;;;;;10.20;4.40;;;9.50;90.80;;;;;;5028842;28;20029;-80
2021/03/29 03:21:51;;;;;;;9.25;5.00;;;9.40;90.80;;;;;;5032532;28;20111;-80
2021/03/29 03:24:17;;;;;;;10.02;5.07;;;9.40;90.90;;;;;;5027015;28;20064;-79
2021/03/29 03:26:43;;;;;;;11.23;5.60;;;9.30;91.00;;;;;;5042645;28;20434;-79
2021/03/29 03:29:09;;;;;;;13.43;5.13;;;9.30;91.10;;;;;;5043029;28;20061;-79
2021/03/29 03:31:34;;;;;;;10.38;4.43;;;9.20;91.30;;;;;;5030778;28;20037;-79
2021/03/29 03:34:01;;;;;;;9.68;5.13;;;9.20;91.40;;;;;;5026051;28;20145;-79
2021/03/29 03:36:29;;;;;;;12.90;5.30;;;9.10;91.40;;;;;;5037576;28;20068;-79
2021/03/29 03:38:56;;;;;;;12.55;5.78;;;9.10;91.40;;;;;;5029476;28;20037;-80
2021/03/29 03:41:31;;;;;;;14.25;5.95;;;9.10;91.30;;;;;;5043300;28;20065;-79
2021/03/29 03:43:59;;;;;;;10.63;5.68;;;9.00;91.10;;;;;;5024691;28;20060;-80
2021/03/29 03:46:28;;;;;;;13.50;5.90;;;9.00;91.60;;;;;;5035865;28;20041;-79
2021/03/29 03:49:03;;;;;;;13.38;6.32;;;9.00;91.90;;;;;;5025150;28;20042;-79
2021/03/29 03:51:30;;;;;;;12.13;6.20;;;8.90;91.80;;;;;;5032726;28;20087;-79
2021/03/29 03:53:56;;;;;;;12.20;6.55;;;8.90;92.00;;;;;;5020007;28;20149;-79
2021/03/29 03:56:23;;;;;;;13.38;6.45;;;8.80;92.00;;;;;;5027609;28;20057;-79
2021/03/29 03:58:52;;;;;;;12.82;6.47;;;8.80;92.00;;;;;;5030878;28;20057;-79
2021/03/29 04:01:18;;;;;;;13.02;6.45;;;8.80;92.10;;;;;;5030123;28;20049;-79
2021/03/29 04:03:44;;;;;;;16.33;6.93;;;8.70;91.90;;;;;;5026180;28;20041;-79
2021/03/29 04:06:10;;;;;;;13.90;6.70;;;8.70;92.20;;;;;;5024155;28;20042;-79
2021/03/29 04:08:36;;;;;;;11.63;6.57;;;8.70;92.40;;;;;;5030886;28;20095;-79
2021/03/29 04:11:04;;;;;;;12.75;6.25;;;8.60;92.40;;;;;;5029316;28;20128;-79
2021/03/29 04:13:31;;;;;;;13.70;6.90;;;8.70;92.50;;;;;;5030281;28;20532;-79
2021/03/29 04:16:04;;;;;;;10.88;6.18;;;8.80;92.50;;;;;;5025474;28;20080;-80
2021/03/29 04:18:30;;;;;;;14.23;6.20;;;8.70;92.20;;;;;;5032563;28;20057;-79
2021/03/29 04:20:57;;;;;;;14.27;6.60;;;8.80;92.50;;;;;;5024989;28;20037;-79
2021/03/29 04:23:24;;;;;;;13.38;6.47;;;8.70;92.60;;;;;;5024187;28;20389;-79
2021/03/29 04:25:51;;;;;;;12.70;6.40;;;8.80;92.50;;;;;;5029918;28;20067;-79
2021/03/29 04:28:17;;;;;;;11.48;6.50;;;8.80;92.50;;;;;;5031612;28;20034;-79
2021/03/29 04:30:44;;;;;;;15.25;6.55;;;8.80;92.50;;;;;;5030095;28;20038;-79
2021/03/29 04:33:09;;;;;;;15.23;6.47;;;8.90;92.40;;;;;;5028236;28;20049;-79
2021/03/29 04:35:35;;;;;;;14.93;6.45;;;8.80;92.50;;;;;;5023161;28;20038;-79
2021/03/29 04:38:01;;;;;;;12.73;5.95;;;8.80;92.40;;;;;;5031583;28;20038;-79
2021/03/29 04:40:28;;;;;;;14.07;6.10;;;8.80;92.50;;;;;;5033992;28;20053;-79
2021/03/29 04:42:55;;;;;;;16.95;6.43;;;8.80;92.50;;;;;;5031981;28;20046;-79
2021/03/29 04:45:22;;;;;;;11.82;5.90;;;8.70;92.70;;;;;;5027418;28;20034;-79
2021/03/29 04:47:48;;;;;;;12.52;6.13;;;8.70;92.50;;;;;;5026138;28;20088;-79
2021/03/29 04:50:16;;;;;;;12.93;5.95;;;8.70;92.80;;;;;;5036847;28;20484;-79
2021/03/29 04:52:42;;;;;;;13.88;6.40;;;8.70;92.80;;;;;;5021389;28;20046;-79
2021/03/29 04:55:11;;;;;;;9.65;5.57;;;8.70;92.90;;;;;;5045233;28;20087;-79
2021/03/29 04:57:37;;;;;;;11.65;6.00;;;8.60;92.80;;;;;;5030135;28;20074;-79
2021/03/29 05:00:04;;;;;;;14.15;5.72;;;8.60;92.80;;;;;;5037772;28;20547;-79
2021/03/29 05:02:30;;;;;;;13.98;6.60;;;8.60;92.80;;;;;;5029800;28;20041;-79
2021/03/29 05:04:56;;;;;;;14.43;6.75;;;8.70;92.90;;;;;;5037251;28;20040;-79
2021/03/29 05:07:22;;;;;;;13.52;6.38;;;8.50;93.00;;;;;;5030076;28;20037;-79
2021/03/29 05:09:47;;;;;;;13.85;6.28;;;8.50;93.00;;;;;;5024189;28;20037;-78
2021/03/29 05:12:20;;;;;;;14.40;6.53;;;8.40;93.00;;;;;;5039393;28;20045;-79
2021/03/29 05:14:46;;;;;;;16.20;6.95;;;8.40;93.20;;;;;;5029721;28;20046;-79
2021/03/29 05:17:12;;;;;;;14.80;7.03;;;8.40;93.30;;;;;;5035190;28;20053;-79
2021/03/29 05:19:38;;;;;;;13.57;6.95;;;8.30;93.40;;;;;;5034310;28;20407;-78
2021/03/29 05:22:08;;;;;;;14.70;6.72;;;8.40;93.30;;;;;;5036483;28;20474;-80
2021/03/29 05:24:35;;;;;;;11.52;6.40;;;8.30;93.40;;;;;;5036394;28;20037;-79
2021/03/29 05:27:01;;;;;;;12.93;6.30;;;8.40;93.60;;;;;;5032329;28;20128;-80
2021/03/29 05:29:28;;;;;;;14.45;7.70;;;8.20;93.50;;;;;;5027312;28;20119;-79
2021/03/29 05:31:57;;;;;;;12.65;6.75;;;8.20;93.60;;;;;;5023377;28;20433;-78
2021/03/29 05:34:24;;;;;;;14.10;7.03;;;8.20;93.70;;;;;;5028700;28;20079;-79
2021/03/29 05:36:51;;;;;;;14.00;7.38;;;8.20;94.00;;;;;;5030841;28;20125;-78
2021/03/29 05:39:17;;;;;;;11.20;6.63;;;8.20;93.80;;;;;;5025042;28;20061;-79
2021/03/29 05:41:46;;;;;;;10.98;6.85;;;8.20;93.80;;;;;;5037013;28;20064;-78
2021/03/29 05:44:12;;;;;;;15.88;6.80;;;8.20;94.00;;;;;;5028939;28;20072;-79
2021/03/29 05:46:39;;;;;;;14.02;6.50;;;8.20;94.00;;;;;;5031670;28;20521;-79
2021/03/29 05:49:06;;;;;;;11.35;6.75;;;8.30;93.80;;;;;;5025848;28;20037;-78
2021/03/29 05:51:37;;;;;;;15.93;6.90;;;8.30;94.00;;;;;;5022928;28;20104;-78
2021/03/29 05:54:05;;;;;;;16.38;7.70;;;8.30;94.10;;;;;;5020989;28;20099;-78
2021/03/29 05:56:33;;;;;;;18.95;11.23;;;8.40;94.30;;;;;;5024795;28;20095;-79
2021/03/29 06:01:46;;;;;;;11.77;6.07;;;8.50;94.20;;;;;;5026791;28;20037;-79
2021/03/29 06:04:14;;;;;;;13.45;6.15;;;8.70;93.70;;;;;;5020472;28;20116;-78
2021/03/29 06:06:41;;;;;;;13.15;6.00;;;8.70;93.80;;;;;;5028575;28;20068;-78
2021/03/29 06:09:09;;;;;;;12.13;5.35;;;8.80;93.70;;;;;;5020790;28;20037;-78
2021/03/29 06:11:40;;;;;;;12.93;5.97;;;8.90;93.60;;;;;;5024791;28;20382;-78
2021/03/29 06:14:18;;;;;;;11.80;6.25;;;8.90;93.20;;;;;;5030133;28;20072;-79
2021/03/29 06:17:19;;;;;;;11.07;5.40;;;9.10;93.40;;;;;;5049582;28;20045;-78
2021/03/29 06:19:50;;;;;;;11.90;5.30;;;9.20;91.60;;;;;;5017711;28;20785;-78
2021/03/29 06:22:15;;;;;;;14.32;5.20;;;9.30;93.10;;;;;;5030548;28;20133;-78
2021/03/29 06:24:54;;;;;;;10.65;5.10;;;9.50;92.90;;;;;;5034898;28;20122;-78
2021/03/29 06:27:21;;;;;;;12.68;5.30;;;9.60;92.60;;;;;;5022783;28;20057;-78
2021/03/29 06:29:47;;;;;;;14.88;5.20;;;9.80;92.80;;;;;;5001321;28;20056;-78
2021/03/29 06:32:20;;;;;;;13.80;5.00;;;9.90;92.10;;;;;;5022389;28;20037;-79
2021/03/29 06:34:47;;;;;;;14.68;4.75;;;10.00;91.90;;;;;;5035906;28;20053;-78
2021/03/29 06:37:13;;;;;;;12.48;4.30;;;10.10;92.00;;;;;;5021356;28;20108;-78
2021/03/29 06:39:40;;;;;;;11.07;4.05;;;10.30;91.80;;;;;;5022569;28;20700;-78
2021/03/29 06:42:07;;;;;;;8.77;4.25;;;10.40;91.80;;;;;;5019476;28;20044;-78
2021/03/29 06:44:37;;;;;;;9.75;3.92;;;10.40;91.40;;;;;;5023044;28;20038;-79
2021/03/29 06:47:14;;;;;;;11.88;4.28;;;10.60;91.80;;;;;;5016400;28;20084;-78
2021/03/29 06:49:47;;;;;;;12.85;3.85;;;10.70;91.10;;;;;;5024179;28;20092;-78
2021/03/29 06:52:28;;;;;;;12.73;4.45;;;10.90;91.20;;;;;;5021782;28;20038;-77
2021/03/29 06:55:14;;;;;;;13.23;5.55;;;11.00;89.90;;;;;;5031346;28;20580;-78
2021/03/29 06:57:40;;;;;;;11.82;3.70;;;11.10;90.70;;;;;;5022694;28;20049;-79
2021/03/29 07:00:11;;;;;;;8.13;3.03;;;11.30;90.60;;;;;;5026040;28;20548;-79
2021/03/29 07:02:39;;;;;;;10.75;3.92;;;11.40;90.30;;;;;;5017049;28;20092;-79
2021/03/29 07:05:06;;;;;;;10.25;3.10;;;11.40;89.00;;;;;;5021837;28;20454;-78
2021/03/29 07:07:32;;;;;;;11.90;4.18;;;11.50;88.30;;;;;;5022469;28;20626;-78
2021/03/29 07:09:59;;;;;;;9.55;3.50;;;11.60;89.20;;;;;;5022704;28;20057;-78
2021/03/29 07:12:27;;;;;;;7.10;2.72;;;11.60;89.80;;;;;;5022918;28;20140;-77
2021/03/29 07:14:55;;;;;;;9.15;3.67;;;11.80;88.70;;;;;;5024693;28;20124;-78
2021/03/29 07:17:25;;;;;;;11.32;3.58;;;12.00;89.00;;;;;;5019252;28;20534;-78
2021/03/29 07:19:53;;;;;;;10.35;3.17;;;12.10;88.10;;;;;;5023772;28;20069;-79
2021/03/29 07:22:19;;;;;;;10.43;3.58;;;12.10;87.20;;;;;;5018320;28;20450;-79
2021/03/29 07:24:46;;;;;;;9.43;3.10;;;12.20;86.70;;;;;;5021698;28;20448;-78
2021/03/29 07:27:15;;;;;;;10.27;3.70;;;12.30;86.70;;;;;;5022449;28;20037;-79
2021/03/29 07:29:48;;;;;;;13.18;3.90;;;12.40;87.50;;;;;;5021784;28;20081;-79
2021/03/29 07:32:33;;;;;;;9.55;3.47;;;12.50;85.00;;;;;;5024556;28;20037;-80
2021/03/29 07:34:59;;;;;;;11.18;3.33;;;12.60;82.80;;;;;;5026727;28;20501;-80
2021/03/29 07:37:35;;;;;;;9.43;3.47;;;12.70;85.70;;;;;;5028741;28;20386;-79
2021/03/29 07:40:05;;;;;;;10.60;3.65;;;12.80;85.10;;;;;;5026967;28;20029;-80
2021/03/29 07:42:37;;;;;;;11.68;3.55;;;13.00;85.60;;;;;;5023942;28;20033;-80
2021/03/29 07:45:08;;;;;;;16.63;6.35;;;13.10;85.10;;;;;;5034548;28;20076;-80
2021/03/29 07:47:43;;;;;;;9.77;3.15;;;13.10;82.30;;;;;;5030649;28;20525;-80
2021/03/29 07:50:25;;;;;;;10.50;3.03;;;13.20;81.70;;;;;;5031273;28;20073;-80
2021/03/29 07:53:02;;;;;;;9.50;3.08;;;13.30;82.10;;;;;;5032629;28;20049;-81
2021/03/29 07:55:49;;;;;;;11.57;3.20;;;13.40;83.30;;;;;;5019459;28;20045;-78
2021/03/29 07:58:19;;;;;;;13.88;3.83;;;13.50;80.70;;;;;;5023425;28;20132;-79
2021/03/29 08:01:06;;;;;;;11.43;4.75;;;13.60;82.10;;;;;;5027621;28;20064;-80
2021/03/29 08:03:41;;;;;;;6.57;2.92;;;13.70;81.60;;;;;;5019230;28;20072;-81
2021/03/29 08:06:39;;;;;;;8.35;3.13;;;13.70;78.60;;;;;;5026085;28;20112;-79
2021/03/29 08:09:06;;;;;;;13.60;3.35;;;13.70;77.90;;;;;;5016756;28;20064;-79
2021/03/29 08:12:01;;;;;;;10.82;3.25;;;13.80;81.10;;;;;;5028852;28;20043;-80
2021/03/29 08:14:36;;;;;;;10.05;2.88;;;13.90;75.40;;;;;;5033055;28;20060;-78
2021/03/29 08:17:44;;;;;;;10.98;4.00;;;13.90;80.20;;;;;;5025859;28;20421;-77
2021/03/29 08:20:15;;;;;;;10.55;3.25;;;14.00;74.50;;;;;;5026846;28;20659;-79
2021/03/29 08:22:44;;;;;;;9.13;2.90;;;14.10;80.60;;;;;;5024251;28;20149;-80
2021/03/29 08:25:29;;;;;;;9.70;2.80;;;14.10;79.60;;;;;;5021797;28;20081;-81
2021/03/29 08:27:56;;;;;;;14.65;3.90;;;14.20;78.20;;;;;;5028664;28;20469;-79
2021/03/29 08:30:25;;;;;;;13.35;4.00;;;14.30;79.60;;;;;;5027438;28;20116;-79
2021/03/29 08:32:51;;;;;;;8.55;3.13;;;14.40;80.00;;;;;;5021579;28;20054;-80
2021/03/29 08:35:18;;;;;;;10.57;3.83;;;14.60;80.90;;;;;;5024063;28;20417;-80
2021/03/29 08:37:59;;;;;;;10.90;3.28;;;14.70;80.00;;;;;;5014809;28;20145;-80
2021/03/29 08:40:33;;;;;;;9.57;3.40;;;14.80;79.90;;;;;;4996220;28;20045;-79
2021/03/29 08:43:10;;;;;;;13.30;3.97;;;14.70;76.80;;;;;;5028377;28;20494;-79
2021/03/29 08:45:37;;;;;;;9.77;3.55;;;14.70;74.50;;;;;;5021119;28;20518;-79
2021/03/29 08:48:04;;;;;;;7.85;3.38;;;14.70;79.60;;;;;;5046734;28;20073;-81
2021/03/29 08:50:35;;;;;;;11.07;3.65;;;14.90;81.10;;;;;;5030464;28;20041;-81
2021/03/29 08:53:07;;;;;;;11.13;3.58;;;15.00;79.70;;;;;;5044314;28;20049;-81
2021/03/29 08:55:38;;;;;;;13.43;3.67;;;15.10;74.80;;;;;;5047355;28;20049;-80
2021/03/29 08:58:07;;;;;;;12.10;3.55;;;15.00;77.10;;;;;;5040150;28;20080;-80
2021/03/29 09:00:42;;;;;;;12.98;3.58;;;14.90;78.10;;;;;;5032940;28;20042;-81
2021/03/29 09:03:16;;;;;;;8.75;3.05;;;14.90;78.40;;;;;;5040688;28;20041;-82
2021/03/29 09:05:42;;;;;;;8.23;3.42;;;15.00;78.20;;;;;;5015347;28;20054;-78
2021/03/29 09:08:10;;;;;;;10.60;3.78;;;15.10;79.10;;;;;;5027021;28;20037;-80
2021/03/29 09:10:36;;;;;;;10.02;3.30;;;15.10;78.30;;;;;;5017196;28;20152;-79
2021/03/29 09:13:11;;;;;;;11.63;3.88;;;15.20;78.70;;;;;;5027736;28;20425;-79
2021/03/29 09:15:41;;;;;;;13.95;3.90;;;15.20;76.80;;;;;;5026922;28;20089;-79
2021/03/29 09:18:11;;;;;;;11.45;4.00;;;15.20;75.20;;;;;;5025470;28;20395;-78
2021/03/29 09:20:47;;;;;;;13.13;4.38;;;15.00;77.70;;;;;;5023805;28;20128;-78
2021/03/29 09:23:14;;;;;;;;;;;15.10;77.20;;;;;;5019969;28;20037;-78
2021/03/29 09:25:43;;;;;;;10.88;3.90;;;15.10;71.60;;;;;;5025544;28;19931;-79
2021/03/29 09:28:16;;;;;;;12.05;4.10;;;15.20;79.50;;;;;;5022844;28;20132;-79
2021/03/29 09:30:47;;;;;;;10.45;3.80;;;15.30;78.30;;;;;;5030225;28;20044;-78
2021/03/29 09:33:13;;;;;;;14.38;4.57;;;15.40;77.80;;;;;;5021467;28;20072;-78
2021/03/29 09:35:39;;;;;;;11.05;3.60;;;15.40;77.80;;;;;;5025588;28;20099;-78
2021/03/29 09:38:05;;;;;;;9.80;3.90;;;15.60;79.80;;;;;;5024597;28;20038;-78
2021/03/29 09:40:36;;;;;;;12.45;4.78;;;15.70;78.10;;;;;;5019232;28;20049;-78
2021/03/29 09:43:06;;;;;;;11.98;4.43;;;15.80;74.10;;;;;;5014618;28;20042;-78
2021/03/29 09:45:34;;;;;;;14.35;4.18;;;15.70;76.30;;;;;;5027228;28;20079;-78
2021/03/29 09:48:09;;;;;;;11.25;3.65;;;15.70;75.30;;;;;;5025911;28;20038;-78
2021/03/29 09:50:40;;;;;;;11.52;4.15;;;15.80;75.40;;;;;;5019612;28;20036;-78
2021/03/29 09:53:23;;;;;;;13.43;4.43;;;15.80;77.10;;;;;;5023769;28;20113;-79
2021/03/29 09:56:06;;;;;;;13.45;3.33;;;15.90;75.30;;;;;;5029557;28;20037;-79
2021/03/29 09:58:43;;;;;;;13.32;4.97;;;15.90;76.60;;;;;;5026760;28;20046;-79
2021/03/29 10:01:26;;;;;;;10.55;4.28;;;15.90;75.80;;;;;;5022470;28;20042;-79
2021/03/29 10:03:58;;;;;;;13.82;4.53;;;15.90;71.80;;;;;;5028455;28;20480;-78
2021/03/29 10:06:25;;;;;;;12.93;4.35;;;15.90;76.30;;;;;;5030360;28;20087;-78
2021/03/29 10:09:04;;;;;;;15.10;4.40;;;16.00;76.90;;;;;;5016256;28;20470;-79
2021/03/29 10:11:49;;;;;;;12.38;4.43;;;16.10;74.30;;;;;;5043411;28;20046;-79
2021/03/29 10:14:16;;;;;;;13.60;4.18;;;16.20;75.30;;;;;;5018320;28;20037;-79
2021/03/29 10:16:48;;;;;;;10.40;4.15;;;16.20;76.60;;;;;;5019950;28;20045;-79
2021/03/29 10:19:19;;;;;;;16.42;5.15;;;16.30;75.50;;;;;;5024170;28;20048;-79
2021/03/29 10:22:14;;;;;;;13.18;4.40;;;16.30;74.00;;;;;;5028619;28;20052;-79
2021/03/29 10:24:57;;;;;;;;;;;16.20;71.70;;;;;;5015438;28;20033;-79
2021/03/29 10:27:24;;;;;;;9.48;3.42;;;16.30;69.90;;;;;;5032048;28;19921;-79
2021/03/29 10:29:50;;;;;;;15.90;4.57;;;16.30;76.20;;;;;;5019523;28;20045;-79
2021/03/29 10:32:18;;;;;;;14.07;4.55;;;16.30;75.70;;;;;;5030302;28;20045;-79
2021/03/29 10:34:46;;;;;;;13.23;4.45;;;16.40;75.30;;;;;;5023753;28;20427;-78
2021/03/29 10:37:21;;;;;;;13.23;3.97;;;16.40;73.90;;;;;;5029754;28;20046;-78
2021/03/29 10:39:47;;;;;;;13.85;4.80;;;16.30;72.60;;;;;;5030511;28;20060;-78
2021/03/29 10:42:14;;;;;;;14.75;3.95;;;16.40;76.50;;;;;;5025589;28;20042;-78
2021/03/29 10:44:41;;;;;;;11.18;3.78;;;16.40;75.20;;;;;;5018169;28;20064;-78
2021/03/29 10:47:07;;;;;;;15.07;4.90;;;16.40;74.50;;;;;;5027242;28;20064;-79
2021/03/29 10:49:33;;;;;;;11.43;4.43;;;16.40;75.40;;;;;;5021047;28;20377;-79
2021/03/29 10:51:59;;;;;;;16.48;5.10;;;16.40;75.50;;;;;;5022603;28;20040;-78
2021/03/29 10:54:25;;;;;;;13.48;4.72;;;16.40;74.80;;;;;;5027879;28;20069;-79
2021/03/29 10:56:51;;;;;;;14.43;4.82;;;16.40;74.20;;;;;;5013251;28;20086;-79
2021/03/29 10:59:17;;;;;;;15.73;5.13;;;16.40;73.00;;;;;;5022311;28;20121;-79
2021/03/29 11:01:42;;;;;;;14.32;4.25;;;16.30;73.10;;;;;;5019294;28;20034;-77
2021/03/29 11:04:08;;;;;;;12.15;4.25;;;16.30;74.20;;;;;;5026145;28;20190;-77
2021/03/29 11:06:34;;;;;;;13.15;4.28;;;16.40;75.00;;;;;;5014766;28;20046;-78
2021/03/29 11:09:00;;;;;;;14.40;4.65;;;16.60;74.70;;;;;;5037981;28;20087;-77
2021/03/29 11:11:26;;;;;;;15.88;4.68;;;16.60;73.10;;;;;;5020293;28;20038;-78
2021/03/29 11:13:52;;;;;;;10.95;4.35;;;16.50;72.40;;;;;;5030242;28;20033;-79
2021/03/29 11:16:20;;;;;;;16.58;5.80;;;16.50;74.40;;;;;;5019767;28;20049;-79
2021/03/29 11:18:46;;;;;;;20.45;5.15;;;16.50;75.10;;;;;;5025034;28;20041;-79
2021/03/29 11:21:12;;;;;;;11.02;5.00;;;16.60;74.10;;;;;;5018240;28;20469;-79
2021/03/29 11:23:38;;;;;;;14.18;4.65;;;16.70;73.70;;;;;;5033573;28;20059;-79
2021/03/29 11:26:04;;;;;;;17.13;5.43;;;16.70;74.40;;;;;;5030063;28;20053;-79
2021/03/29 11:28:30;;;;;;;15.45;5.85;;;16.70;73.70;;;;;;5026982;28;20460;-79
2021/03/29 11:30:57;;;;;;;17.08;5.00;;;16.70;72.90;;;;;;5028410;28;20456;-79
2021/03/29 11:33:23;;;;;;;13.48;4.90;;;16.70;73.10;;;;;;5030141;28;20056;-79
2021/03/29 11:35:49;;;;;;;12.93;4.80;;;16.70;73.30;;;;;;5026995;28;20050;-79
2021/03/29 11:38:14;;;;;;;14.60;5.35;;;16.80;72.70;;;;;;5031231;28;20033;-79
2021/03/29 11:40:41;;;;;;;12.52;5.28;;;16.70;72.60;;;;;;5030171;28;20052;-79
2021/03/29 11:43:09;;;;;;;12.82;5.05;;;16.70;72.10;;;;;;5026989;28;21331;-79
2021/03/29 11:45:35;;;;;;;14.25;5.22;;;16.70;73.30;;;;;;5032528;28;20474;-79
2021/03/29 11:48:01;;;;;;;14.35;4.97;;;16.70;72.90;;;;;;5024189;28;20060;-78
2021/03/29 11:50:27;;;;;;;12.38;5.25;;;16.80;72.80;;;;;;5012802;28;20045;-79
2021/03/29 11:52:52;;;;;;;11.75;4.88;;;16.80;73.00;;;;;;5027390;28;20037;-78
2021/03/29 11:55:18;;;;;;;12.23;4.30;;;16.80;72.20;;;;;;5026771;28;20413;-79
2021/03/29 11:57:45;;;;;;;12.00;4.50;;;16.80;71.40;;;;;;5013116;28;20045;-78
2021/03/29 12:00:24;;;;;;;13.15;4.97;;;16.80;71.60;;;;;;5020043;28;20133;-78
2021/03/29 12:03:36;;;;;;;15.75;6.13;;;16.70;71.10;;;;;;5020796;28;20466;-77
2021/03/29 12:05:46;;;;;;;15.70;5.03;;;16.70;72.20;;;;;;5014730;28;20064;-79
2021/03/29 12:13:24;;;;;;;14.93;5.30;;;16.70;72.10;;;;;;5019850;28;20052;-78
2021/03/29 12:15:54;;;;;;;13.52;5.50;;;16.70;71.70;;;;;;5029258;28;20117;-79
2021/03/29 12:18:33;;;;;;;11.80;4.65;;;16.70;72.10;;;;;;5029417;28;20045;-80
2021/03/29 12:21:02;;;;;;;12.45;5.10;;;16.70;71.60;;;;;;5033082;28;20096;-81
2021/03/29 12:23:30;;;;;;;13.98;5.63;;;16.70;72.00;;;;;;5015227;28;20520;-77
2021/03/29 12:26:06;;;;;;;13.57;4.80;;;16.70;72.20;;;;;;5028081;28;20492;-83
2021/03/29 12:28:33;;;;;;;12.57;5.30;;;16.80;71.70;;;;;;5021948;28;20104;-78
2021/03/29 12:31:00;;;;;;;16.83;5.25;;;16.90;72.30;;;;;;5031605;28;20446;-78
2021/03/29 12:33:30;;;;;;;10.20;4.70;;;16.90;71.80;;;;;;5038626;28;20077;-79
2021/03/29 12:35:57;;;;;;;16.25;5.38;;;16.90;72.10;;;;;;5016444;28;20442;-78
2021/03/29 12:38:28;;;;;;;15.02;5.25;;;17.00;72.00;;;;;;5022116;28;20065;-79
2021/03/29 12:40:59;;;;;;;12.88;5.40;;;17.00;72.40;;;;;;5026580;28;20037;-81
2021/03/29 12:46:06;;;;;;;11.90;5.35;;;17.20;72.00;;;;;;5024402;28;20052;-76
2021/03/29 12:48:34;;;;;;;12.65;5.50;;;17.20;70.90;;;;;;5020766;28;20444;-77
2021/03/29 12:51:06;;;;;;;12.57;5.07;;;17.20;71.00;;;;;;5019275;28;20099;-77
2021/03/29 12:53:32;;;;;;;13.38;5.15;;;17.20;70.70;;;;;;5023799;28;20045;-76
2021/03/29 12:55:59;;;;;;;10.75;5.35;;;17.20;71.30;;;;;;5019580;28;20064;-76
2021/03/29 12:58:25;;;;;;;12.95;5.60;;;17.20;71.70;;;;;;5019791;28;20401;-77
2021/03/29 13:00:53;;;;;;;13.30;4.65;;;17.30;71.40;;;;;;5013294;28;20514;-78
2021/03/29 13:03:21;;;;;;;10.20;4.50;;;17.40;71.00;;;;;;5019479;28;20045;-86
2021/03/29 13:08:23;;;;;;;10.93;4.50;;;17.40;70.80;;;;;;5028435;28;20042;-85
2021/03/29 13:13:31;;;;;;;9.38;5.07;;;17.30;70.00;;;;;;5023417;28;20034;-85